Time;durP1;ratioP1;P1;durP2;ratioP2;P2;SDS_P1;SDS_P2;PMS_P1;PMS_P2;Temp;Humidity;BMP_temperature;BMP_pressure;BME280_temperature;BME280_humidity;BME280_pressure;Samples;Min_cycle;Max_cycle;Signal;HPM_P1;HPM_P2
2023/05/16 00:01:53;;;;;;;24.23;3.20;;;11.50;99.90;;;;;;7292016;19;20291;-93
2023/05/16 00:04:20;;;;;;;23.17;3.47;;;11.50;99.90;;;;;;7291974;19;20186;-93
2023/05/16 00:06:46;;;;;;;19.53;3.00;;;11.40;99.90;;;;;;7294038;19;20191;-93
2023/05/16 00:09:12;;;;;;;21.30;3.27;;;11.50;99.90;;;;;;7291313;19;20187;-94
2023/05/16 00:11:38;;;;;;;23.50;2.90;;;11.50;99.90;;;;;;7289092;19;20277;-93
2023/05/16 00:14:04;;;;;;;18.77;2.80;;;11.50;99.90;;;;;;7288557;19;20186;-92
2023/05/16 00:16:29;;;;;;;24.13;3.37;;;11.30;99.90;;;;;;7305484;19;20186;-91
2023/05/16 00:18:59;;;;;;;19.33;3.23;;;11.20;99.90;;;;;;7303408;19;20645;-91
2023/05/16 00:21:25;;;;;;;22.80;3.20;;;11.10;99.90;;;;;;7288673;19;20194;-91
2023/05/16 00:23:51;;;;;;;24.93;4.00;;;11.00;99.90;;;;;;7286408;19;20186;-93
2023/05/16 00:26:18;;;;;;;24.10;3.37;;;11.00;99.90;;;;;;7289241;19;20186;-92
2023/05/16 00:28:43;;;;;;;19.07;3.30;;;10.90;99.90;;;;;;7287227;19;20190;-92
2023/05/16 00:31:09;;;;;;;24.77;3.83;;;10.80;99.90;;;;;;7287665;19;20224;-92
2023/05/16 00:33:35;;;;;;;21.87;3.50;;;10.70;99.90;;;;;;7289349;19;20201;-92
2023/05/16 00:36:01;;;;;;;22.53;3.23;;;10.60;99.90;;;;;;7287608;19;20175;-92
2023/05/16 00:38:27;;;;;;;20.37;3.30;;;10.50;99.90;;;;;;7310686;19;20645;-92
2023/05/16 00:40:53;;;;;;;20.07;3.10;;;10.40;99.90;;;;;;7288764;19;20185;-92
2023/05/16 00:43:19;;;;;;;26.43;3.27;;;10.40;99.90;;;;;;7286103;19;20185;-92
2023/05/16 00:45:44;;;;;;;27.37;3.50;;;10.30;99.90;;;;;;7289229;19;20199;-91
2023/05/16 00:48:13;;;;;;;20.13;3.07;;;10.30;99.90;;;;;;7287878;19;20209;-92
2023/05/16 00:50:39;;;;;;;19.90;3.17;;;10.30;99.90;;;;;;7287608;19;20652;-92
2023/05/16 00:53:05;;;;;;;16.07;2.60;;;10.30;99.90;;;;;;7287670;19;20252;-91
2023/05/16 00:55:34;;;;;;;24.50;3.90;;;10.20;99.90;;;;;;7290851;19;20194;-91
2023/05/16 00:58:00;;;;;;;18.43;2.97;;;10.10;99.90;;;;;;7300578;19;20186;-93
2023/05/16 01:00:26;;;;;;;23.70;3.07;;;10.00;99.90;;;;;;7306683;19;20184;-92
2023/05/16 01:02:52;;;;;;;19.80;3.23;;;9.80;99.90;;;;;;7285210;19;20662;-92
2023/05/16 01:05:21;;;;;;;21.37;3.50;;;9.90;99.90;;;;;;7292676;19;20193;-93
2023/05/16 01:07:47;;;;;;;23.60;3.50;;;9.90;99.90;;;;;;7294438;19;20186;-92
2023/05/16 01:10:14;;;;;;;24.23;3.40;;;9.90;99.90;;;;;;7293036;19;20190;-93
2023/05/16 01:13:02;;;;;;;26.63;4.07;;;9.90;99.90;;;;;;7294284;19;20185;-92
2023/05/16 01:15:38;;;;;;;24.37;3.40;;;9.90;99.90;;;;;;7293503;19;20188;-92
2023/05/16 01:18:29;;;;;;;19.67;3.33;;;9.90;99.90;;;;;;7270815;19;20192;-93
2023/05/16 01:21:02;;;;;;;29.17;3.57;;;9.90;99.90;;;;;;7293004;19;20213;-92
2023/05/16 01:24:03;;;;;;;20.20;3.37;;;9.90;99.90;;;;;;7292914;19;20204;-93
2023/05/16 01:26:31;;;;;;;23.53;3.63;;;9.80;99.90;;;;;;7192818;19;2004335;-93
2023/05/16 01:28:57;;;;;;;22.20;3.47;;;9.70;99.90;;;;;;7294661;19;20189;-92
2023/05/16 01:31:23;;;;;;;21.47;3.60;;;9.50;99.90;;;;;;7292942;19;20194;-92
2023/05/16 01:33:50;;;;;;;19.60;3.17;;;9.50;99.90;;;;;;7294386;19;20198;-91
2023/05/16 01:36:28;;;;;;;18.37;3.20;;;9.50;99.90;;;;;;7292913;19;20195;-92
2023/05/16 01:39:02;;;;;;;22.33;3.50;;;9.50;99.90;;;;;;7292497;19;20205;-92
2023/05/16 01:42:02;;;;;;;29.87;3.87;;;9.50;99.90;;;;;;7292849;19;20185;-92
2023/05/16 01:44:51;;;;;;;24.63;3.33;;;9.50;99.90;;;;;;7190110;19;2004441;-91
2023/05/16 01:47:20;;;;;;;21.53;3.63;;;9.50;99.90;;;;;;7191686;19;2004591;-92
2023/05/16 01:50:08;;;;;;;19.47;3.40;;;9.40;99.90;;;;;;7293158;19;20199;-92
2023/05/16 01:52:43;;;;;;;29.93;3.17;;;9.30;99.90;;;;;;7272407;19;20189;-92
2023/05/16 01:55:29;;;;;;;19.47;2.77;;;9.20;99.90;;;;;;7292316;19;20181;-92
2023/05/16 01:57:59;;;;;;;25.57;3.37;;;9.00;99.90;;;;;;7290782;19;20191;-93
2023/05/16 02:00:26;;;;;;;18.43;2.73;;;9.00;99.90;;;;;;7292285;19;20194;-91
2023/05/16 02:02:51;;;;;;;19.83;2.83;;;9.00;99.90;;;;;;7290073;19;20691;-92
2023/05/16 02:05:17;;;;;;;21.67;3.20;;;9.00;99.90;;;;;;7292930;19;20196;-92
2023/05/16 02:07:43;;;;;;;17.50;3.00;;;9.10;99.90;;;;;;7290994;19;20181;-92
2023/05/16 02:10:10;;;;;;;22.30;3.03;;;9.20;99.90;;;;;;7291806;19;20191;-93
2023/05/16 02:12:36;;;;;;;23.13;3.30;;;9.10;99.90;;;;;;7291669;19;20187;-93
2023/05/16 02:15:02;;;;;;;17.73;3.20;;;9.00;99.90;;;;;;7291038;19;20205;-92
2023/05/16 02:17:28;;;;;;;21.10;3.20;;;8.90;99.90;;;;;;7310976;19;20189;-92
2023/05/16 02:19:54;;;;;;;22.00;2.87;;;8.80;99.90;;;;;;7292010;19;20181;-92
2023/05/16 02:22:20;;;;;;;21.47;3.40;;;8.70;99.90;;;;;;7292244;19;20251;-93
2023/05/16 02:24:45;;;;;;;24.27;2.83;;;8.70;99.90;;;;;;7291561;19;20181;-92
2023/05/16 02:27:11;;;;;;;21.87;3.30;;;8.80;99.90;;;;;;7292169;19;20187;-92
2023/05/16 02:29:37;;;;;;;23.17;3.27;;;8.80;99.90;;;;;;7290972;19;20192;-93
2023/05/16 02:32:03;;;;;;;21.90;3.37;;;8.70;99.90;;;;;;7290885;19;20187;-92
2023/05/16 02:34:29;;;;;;;22.00;3.50;;;8.60;99.90;;;;;;7314376;19;20194;-92
2023/05/16 02:36:55;;;;;;;23.17;3.57;;;8.50;99.90;;;;;;7291801;19;20188;-93
2023/05/16 02:39:21;;;;;;;27.23;3.97;;;8.60;99.90;;;;;;7291509;19;20189;-92
2023/05/16 02:41:50;;;;;;;20.17;3.13;;;8.60;99.90;;;;;;7290444;19;20273;-93
2023/05/16 02:44:16;;;;;;;20.47;3.40;;;8.60;99.90;;;;;;7291647;19;20177;-93
2023/05/16 02:46:41;;;;;;;23.33;3.10;;;8.60;99.90;;;;;;7291038;19;20185;-91
2023/05/16 02:49:09;;;;;;;21.37;3.43;;;8.70;99.90;;;;;;7290076;19;20191;-93
2023/05/16 02:51:34;;;;;;;19.73;3.90;;;8.70;99.90;;;;;;7290172;19;20188;-92
2023/05/16 02:54:00;;;;;;;24.67;3.73;;;8.70;99.90;;;;;;7304835;19;20185;-93
2023/05/16 02:56:27;;;;;;;19.50;3.77;;;8.70;99.90;;;;;;7309038;19;20196;-92
2023/05/16 02:58:53;;;;;;;20.10;3.53;;;8.70;99.90;;;;;;7289990;19;20187;-92
2023/05/16 03:01:19;;;;;;;21.37;3.70;;;8.70;99.90;;;;;;7291661;19;20192;-93
2023/05/16 03:03:45;;;;;;;24.13;3.90;;;8.60;99.90;;;;;;7294892;19;20195;-92
2023/05/16 03:06:11;;;;;;;24.97;4.40;;;8.60;99.90;;;;;;7294402;19;20192;-92
2023/05/16 03:08:37;;;;;;;20.07;4.20;;;8.60;99.90;;;;;;7294640;19;20192;-92
2023/05/16 03:11:03;;;;;;;19.87;3.83;;;8.70;99.90;;;;;;7293043;19;20181;-93
2023/05/16 03:13:29;;;;;;;18.77;3.63;;;8.60;99.90;;;;;;7316764;19;20643;-93
2023/05/16 03:15:58;;;;;;;16.10;3.90;;;8.50;99.90;;;;;;7293006;19;20251;-93
2023/05/16 03:18:24;;;;;;;28.83;3.97;;;8.50;99.90;;;;;;7295375;19;20199;-91
2023/05/16 03:20:51;;;;;;;24.23;4.27;;;8.50;99.90;;;;;;7292461;19;20201;-93
2023/05/16 03:23:19;;;;;;;23.23;4.03;;;8.50;99.90;;;;;;7292593;19;20236;-92
2023/05/16 03:25:47;;;;;;;21.70;4.40;;;8.60;99.90;;;;;;7292986;19;20192;-92
2023/05/16 03:28:13;;;;;;;20.77;4.07;;;8.60;99.90;;;;;;7290078;19;20188;-92
2023/05/16 03:30:38;;;;;;;21.50;3.97;;;8.70;99.90;;;;;;7292740;19;20184;-92
2023/05/16 03:33:04;;;;;;;23.40;4.43;;;8.80;99.90;;;;;;7294618;19;20244;-92
2023/05/16 03:35:31;;;;;;;23.97;4.47;;;8.80;99.90;;;;;;7310858;19;20188;-93
2023/05/16 03:37:57;;;;;;;20.63;4.17;;;8.70;99.90;;;;;;7314911;19;20216;-92
2023/05/16 03:40:23;;;;;;;21.17;3.70;;;8.60;99.90;;;;;;7292991;19;20212;-93
2023/05/16 03:42:50;;;;;;;17.80;3.63;;;8.60;99.90;;;;;;7292655;19;20217;-92
2023/05/16 03:45:16;;;;;;;32.03;5.30;;;8.60;99.90;;;;;;7285292;19;20194;-92
2023/05/16 03:47:43;;;;;;;26.73;4.00;;;8.60;99.90;;;;;;7292554;19;20190;-92
2023/05/16 03:50:09;;;;;;;27.67;4.10;;;8.60;99.90;;;;;;7289512;19;20189;-92
2023/05/16 03:52:35;;;;;;;18.47;3.87;;;8.60;99.90;;;;;;7291393;19;20223;-93
2023/05/16 03:55:02;;;;;;;15.47;3.30;;;8.60;99.90;;;;;;7302175;19;20210;-93
2023/05/16 03:57:32;;;;;;;22.10;3.67;;;8.60;99.90;;;;;;7312527;19;20191;-93
2023/05/16 03:59:59;;;;;;;22.57;4.03;;;8.60;99.90;;;;;;7291289;19;20208;-91
2023/05/16 04:02:25;;;;;;;24.73;4.17;;;8.60;99.90;;;;;;7287967;19;20541;-92
2023/05/16 04:04:51;;;;;;;18.60;4.10;;;8.70;99.90;;;;;;7290464;19;20194;-93
2023/05/16 04:07:16;;;;;;;21.43;4.03;;;8.70;99.90;;;;;;7288880;19;20304;-93
2023/05/16 04:09:42;;;;;;;22.83;3.53;;;8.80;99.90;;;;;;7288621;19;20202;-92
2023/05/16 04:12:08;;;;;;;25.73;4.20;;;8.80;99.90;;;;;;7289049;19;20579;-92
2023/05/16 04:14:34;;;;;;;27.63;5.40;;;8.80;99.90;;;;;;7287415;19;20187;-92
2023/05/16 04:17:00;;;;;;;21.67;3.73;;;8.80;99.90;;;;;;7307279;19;20634;-92
2023/05/16 04:19:26;;;;;;;17.63;3.70;;;8.90;99.90;;;;;;7303820;19;20655;-92
2023/05/16 04:21:52;;;;;;;16.77;3.23;;;9.00;99.90;;;;;;7290193;19;20193;-92
2023/05/16 04:24:18;;;;;;;18.03;3.73;;;9.10;99.90;;;;;;7292127;19;20185;-93
2023/05/16 04:26:44;;;;;;;17.63;3.77;;;9.20;99.90;;;;;;7291261;19;20220;-93
2023/05/16 04:29:10;;;;;;;20.87;3.60;;;9.30;99.90;;;;;;7290173;19;20244;-94
2023/05/16 04:31:36;;;;;;;19.30;3.40;;;9.30;99.90;;;;;;7290764;19;20196;-94
2023/05/16 04:34:02;;;;;;;23.33;4.10;;;9.40;99.90;;;;;;7293126;19;20279;-93
2023/05/16 04:36:29;;;;;;;18.27;3.93;;;9.50;99.90;;;;;;7313246;19;20254;-93
2023/05/16 04:38:56;;;;;;;17.30;3.43;;;9.60;99.90;;;;;;7290673;19;20189;-94
2023/05/16 04:41:22;;;;;;;16.40;3.57;;;10.20;99.90;;;;;;7298012;19;20220;-94
2023/05/16 04:43:48;;;;;;;14.60;3.70;;;10.90;99.90;;;;;;7295602;19;20207;-94
2023/05/16 04:46:16;;;;;;;16.27;3.37;;;11.70;99.90;;;;;;7297541;19;20650;-93
2023/05/16 04:48:41;;;;;;;15.37;2.80;;;12.50;99.90;;;;;;7295773;19;20192;-93
2023/05/16 04:51:07;;;;;;;13.43;2.97;;;13.30;99.90;;;;;;7295114;19;20277;-92
2023/05/16 04:53:33;;;;;;;13.97;2.53;;;14.20;99.90;;;;;;7294665;19;20206;-91
2023/05/16 04:55:59;;;;;;;16.60;2.37;;;14.80;99.90;;;;;;7315872;19;20210;-92
2023/05/16 04:58:25;;;;;;;15.53;3.23;;;15.60;99.90;;;;;;7296536;19;20188;-92
2023/05/16 05:00:51;;;;;;;14.87;3.00;;;16.20;99.90;;;;;;7295578;19;20198;-93
2023/05/16 05:03:17;;;;;;;16.03;3.03;;;16.00;99.90;;;;;;7294030;19;20185;-91
2023/05/16 05:05:44;;;;;;;16.37;2.87;;;15.60;99.90;;;;;;7295563;19;20215;-91
2023/05/16 05:08:10;;;;;;;18.37;3.27;;;15.80;99.90;;;;;;7293004;19;20612;-93
2023/05/16 05:10:36;;;;;;;18.97;3.33;;;16.50;99.90;;;;;;7290627;19;20203;-90
2023/05/16 05:13:02;;;;;;;15.03;2.77;;;17.40;99.90;;;;;;7296639;19;20201;-91
2023/05/16 05:15:27;;;;;;;14.87;2.90;;;18.10;99.90;;;;;;7313129;19;20219;-91
2023/05/16 05:17:53;;;;;;;19.77;3.53;;;18.60;99.90;;;;;;7290873;19;20195;-91
2023/05/16 05:20:19;;;;;;;15.57;3.10;;;19.10;99.90;;;;;;7294551;19;20196;-92
2023/05/16 05:22:45;;;;;;;15.40;3.23;;;19.60;99.90;;;;;;7290694;19;20200;-90
2023/05/16 05:25:11;;;;;;;18.10;2.90;;;19.70;99.90;;;;;;7291113;19;20192;-90
2023/05/16 05:27:39;;;;;;;15.33;2.60;;;20.10;99.90;;;;;;7291821;19;20180;-90
2023/05/16 05:30:05;;;;;;;20.33;3.13;;;20.20;99.90;;;;;;7289654;19;20187;-90
2023/05/16 05:32:31;;;;;;;20.07;2.70;;;20.90;99.90;;;;;;7305000;19;20204;-90
2023/05/16 05:34:57;;;;;;;15.00;2.70;;;21.50;99.90;;;;;;7308633;19;20594;-90
2023/05/16 05:37:24;;;;;;;16.83;2.60;;;21.90;99.90;;;;;;7289480;19;20229;-90
2023/05/16 05:39:49;;;;;;;15.40;2.40;;;21.70;99.90;;;;;;7290674;19;20189;-90
2023/05/16 05:42:15;;;;;;;16.17;2.60;;;21.80;99.90;;;;;;7290601;19;20189;-89
2023/05/16 05:44:41;;;;;;;16.43;2.70;;;21.90;99.90;;;;;;7289415;19;20219;-90
2023/05/16 05:47:07;;;;;;;13.83;2.73;;;22.50;99.90;;;;;;7289411;19;20185;-90
2023/05/16 05:49:33;;;;;;;10.20;2.10;;;22.70;99.90;;;;;;7289779;19;20659;-91
2023/05/16 05:51:59;;;;;;;13.20;2.20;;;21.90;99.90;;;;;;7312027;19;20258;-90
2023/05/16 05:54:25;;;;;;;17.70;2.37;;;21.90;99.90;;;;;;7289670;19;20208;-90
2023/05/16 05:56:50;;;;;;;10.80;2.27;;;21.60;99.90;;;;;;7289310;19;20693;-89
2023/05/16 05:59:16;;;;;;;12.90;2.43;;;21.30;99.90;;;;;;7291129;19;20200;-89
2023/05/16 06:01:45;;;;;;;16.33;2.80;;;21.30;99.90;;;;;;7290431;19;20193;-89
2023/05/16 06:04:11;;;;;;;14.07;2.10;;;21.60;99.90;;;;;;7290892;19;20264;-89
2023/05/16 06:06:38;;;;;;;11.33;2.30;;;20.40;99.90;;;;;;7289997;19;20194;-88
2023/05/16 06:09:05;;;;;;;14.47;2.07;;;19.50;99.90;;;;;;7289284;19;20524;-89
2023/05/16 06:11:30;;;;;;;16.37;2.20;;;19.10;99.90;;;;;;7310839;19;20197;-88
2023/05/16 06:13:56;;;;;;;14.83;2.63;;;18.90;99.90;;;;;;7290668;19;20199;-89
2023/05/16 06:16:25;;;;;;;13.03;2.00;;;19.30;99.90;;;;;;7289630;19;20533;-89
2023/05/16 06:18:51;;;;;;;12.63;2.13;;;19.70;99.90;;;;;;7290734;19;20201;-88
2023/05/16 06:21:17;;;;;;;14.90;2.10;;;20.30;99.90;;;;;;7289674;19;20193;-88
2023/05/16 06:23:42;;;;;;;17.13;2.40;;;20.30;99.90;;;;;;7292974;19;20198;-89
2023/05/16 06:26:08;;;;;;;15.50;2.33;;;18.70;99.90;;;;;;7293073;19;20197;-89
2023/05/16 06:28:34;;;;;;;11.30;1.93;;;17.60;99.90;;;;;;7291182;19;20178;-89
2023/05/16 06:31:00;;;;;;;23.87;2.40;;;16.70;99.90;;;;;;7311155;19;20192;-88
2023/05/16 06:33:25;;;;;;;14.23;2.20;;;16.30;99.90;;;;;;7292040;19;20221;-89
2023/05/16 06:35:51;;;;;;;16.53;2.37;;;15.90;99.90;;;;;;7289805;19;20203;-89
2023/05/16 06:38:21;;;;;;;14.83;2.37;;;15.70;99.90;;;;;;7289220;19;20186;-89
2023/05/16 06:40:47;;;;;;;20.10;3.07;;;16.00;99.90;;;;;;7289546;19;20518;-88
2023/05/16 06:43:12;;;;;;;14.87;2.20;;;16.10;99.90;;;;;;7289103;19;20187;-88
2023/05/16 06:45:38;;;;;;;15.50;1.90;;;15.80;99.90;;;;;;7289376;19;20195;-89
2023/05/16 06:48:06;;;;;;;18.30;2.60;;;15.40;99.90;;;;;;7288559;19;20182;-89
2023/05/16 06:50:34;;;;;;;16.10;1.93;;;14.90;99.90;;;;;;7293125;19;20192;-88
2023/05/16 06:53:00;;;;;;;15.30;2.50;;;14.80;99.90;;;;;;7311652;19;20202;-89
2023/05/16 06:55:26;;;;;;;17.17;2.13;;;15.80;99.90;;;;;;7288622;19;20205;-89
2023/05/16 06:57:51;;;;;;;15.47;2.03;;;16.30;99.90;;;;;;7287655;19;20686;-89
2023/05/16 07:00:18;;;;;;;14.37;1.97;;;15.90;99.90;;;;;;7289493;19;20189;-89
2023/05/16 07:02:44;;;;;;;15.23;1.90;;;15.20;99.90;;;;;;7285787;19;20215;-89
2023/05/16 07:05:09;;;;;;;12.53;1.97;;;14.90;99.90;;;;;;7287855;19;20748;-89
2023/05/16 07:07:35;;;;;;;16.47;1.83;;;15.90;99.90;;;;;;7288163;19;20539;-89
2023/05/16 07:10:02;;;;;;;18.47;2.30;;;17.40;99.90;;;;;;7304515;19;20191;-89
2023/05/16 07:12:28;;;;;;;11.77;1.73;;;16.70;99.90;;;;;;7309093;19;20185;-89
2023/05/16 07:14:53;;;;;;;11.07;1.90;;;16.60;99.90;;;;;;7287207;19;20185;-89
2023/05/16 07:17:19;;;;;;;11.83;1.83;;;17.30;99.90;;;;;;7286905;19;20191;-88
2023/05/16 07:19:45;;;;;;;10.03;1.50;;;18.20;99.90;;;;;;7288160;19;20192;-89
2023/05/16 07:22:11;;;;;;;9.93;1.53;;;17.50;99.90;;;;;;7285003;19;20640;-90
2023/05/16 07:24:37;;;;;;;11.27;1.60;;;16.90;99.90;;;;;;7286064;19;20190;-89
2023/05/16 07:27:03;;;;;;;11.23;1.70;;;16.70;99.90;;;;;;7291250;19;20190;-88
2023/05/16 07:29:29;;;;;;;9.67;1.40;;;16.00;99.90;;;;;;7312123;19;20831;-89
2023/05/16 07:31:55;;;;;;;13.03;1.70;;;15.40;99.90;;;;;;7286259;19;20184;-89
2023/05/16 07:34:21;;;;;;;9.53;1.27;;;15.50;99.90;;;;;;7287483;19;21922;-89
2023/05/16 07:36:46;;;;;;;13.13;1.60;;;15.50;99.90;;;;;;7286366;19;20202;-88
2023/05/16 07:39:13;;;;;;;10.77;1.50;;;15.80;99.90;;;;;;7288166;19;20187;-89
2023/05/16 07:41:38;;;;;;;12.27;1.77;;;16.20;99.90;;;;;;7286873;19;20189;-89
2023/05/16 07:44:04;;;;;;;11.00;1.27;;;16.50;99.90;;;;;;7286751;19;20194;-88
2023/05/16 07:46:30;;;;;;;11.03;1.70;;;16.90;99.90;;;;;;7309017;19;20194;-89
2023/05/16 07:48:56;;;;;;;9.63;1.50;;;18.30;99.90;;;;;;7287248;19;20191;-89
2023/05/16 07:51:21;;;;;;;6.90;1.30;;;19.00;99.90;;;;;;7286399;19;20182;-89
2023/05/16 07:53:47;;;;;;;9.53;1.70;;;18.90;99.90;;;;;;7287960;19;20527;-89
2023/05/16 07:56:13;;;;;;;9.90;1.50;;;18.80;99.90;;;;;;7286709;19;20200;-89
2023/05/16 07:58:40;;;;;;;7.00;1.53;;;20.00;99.90;;;;;;7285460;19;20662;-89
2023/05/16 08:01:06;;;;;;;10.37;1.23;;;20.00;99.90;;;;;;7287085;19;20261;-89
2023/05/16 08:03:32;;;;;;;10.13;1.33;;;20.50;99.90;;;;;;7300375;19;20188;-89
2023/05/16 08:05:57;;;;;;;7.97;1.20;;;20.60;99.90;;;;;;7303424;19;20274;-89
2023/05/16 08:08:23;;;;;;;6.63;0.80;;;20.40;99.90;;;;;;7286981;19;20186;-89
2023/05/16 08:10:49;;;;;;;6.07;1.33;;;21.00;99.90;;;;;;7284626;19;20256;-89
2023/05/16 08:13:15;;;;;;;12.40;1.60;;;21.70;99.90;;;;;;7289353;19;20194;-89
2023/05/16 08:15:41;;;;;;;9.70;1.23;;;21.30;99.90;;;;;;7292939;19;20193;-89
2023/05/16 08:18:13;;;;;;;8.77;1.30;;;20.90;99.90;;;;;;7292503;19;20197;-89
2023/05/16 08:20:40;;;;;;;12.23;1.70;;;19.90;99.90;;;;;;7292632;19;20183;-89
2023/05/16 08:23:06;;;;;;;14.63;1.80;;;18.50;99.90;;;;;;7293487;19;20264;-89
2023/05/16 08:25:32;;;;;;;14.27;1.87;;;17.40;99.90;;;;;;7305908;19;20172;-89
2023/05/16 08:28:00;;;;;;;12.93;1.93;;;16.60;99.90;;;;;;7312643;19;20191;-88
2023/05/16 08:30:26;;;;;;;16.93;1.80;;;16.40;99.90;;;;;;7290473;19;20187;-90
2023/05/16 08:32:52;;;;;;;15.80;2.20;;;16.00;99.90;;;;;;7294500;19;20279;-89
2023/05/16 08:35:18;;;;;;;19.37;2.03;;;15.80;99.90;;;;;;7293332;19;20627;-88
2023/05/16 08:37:44;;;;;;;14.10;1.93;;;15.50;99.90;;;;;;7291618;19;20235;-89
2023/05/16 08:40:10;;;;;;;13.20;1.40;;;15.90;99.90;;;;;;7293618;19;20697;-89
2023/05/16 08:42:37;;;;;;;11.07;1.40;;;17.60;99.90;;;;;;7291801;19;20173;-89
2023/05/16 08:45:04;;;;;;;8.23;1.30;;;18.00;99.90;;;;;;7302588;19;20205;-88
2023/05/16 08:47:31;;;;;;;9.23;1.30;;;19.00;99.90;;;;;;7315103;19;20261;-89
2023/05/16 08:49:59;;;;;;;9.40;1.30;;;19.40;99.90;;;;;;7291001;19;20190;-89
2023/05/16 08:52:30;;;;;;;7.60;1.40;;;19.60;99.90;;;;;;7293156;19;20192;-89
2023/05/16 08:55:04;;;;;;;10.20;1.43;;;20.40;99.90;;;;;;7291325;19;20184;-89
2023/05/16 08:57:32;;;;;;;8.27;1.20;;;20.50;99.90;;;;;;7292331;19;20191;-89
2023/05/16 08:59:59;;;;;;;8.70;1.20;;;20.50;99.90;;;;;;7293482;19;20188;-89
2023/05/16 09:02:26;;;;;;;5.70;1.07;;;21.20;99.90;;;;;;7291208;19;20191;-89
2023/05/16 09:04:53;;;;;;;10.57;1.33;;;21.00;99.90;;;;;;7292179;19;20214;-89
2023/05/16 09:07:19;;;;;;;10.27;1.33;;;20.40;99.90;;;;;;7292162;19;20516;-89
2023/05/16 09:09:45;;;;;;;7.43;1.23;;;20.90;99.90;;;;;;7290837;19;20189;-90
2023/05/16 09:12:11;;;;;;;10.33;1.30;;;20.50;99.90;;;;;;7292194;19;20226;-89
2023/05/16 09:14:37;;;;;;;5.13;1.17;;;21.10;99.90;;;;;;7291229;19;20210;-90
2023/05/16 09:17:06;;;;;;;8.83;1.60;;;22.20;99.90;;;;;;7290771;19;20263;-89
2023/05/16 09:19:43;;;;;;;6.90;0.90;;;22.10;99.00;;;;;;7307888;19;20187;-89
2023/05/16 09:22:13;;;;;;;5.93;1.30;;;21.70;98.70;;;;;;7291735;19;20381;-89
2023/05/16 09:24:42;;;;;;;5.40;1.10;;;21.70;99.70;;;;;;7291524;19;20188;-89
2023/05/16 09:27:09;;;;;;;6.10;1.10;;;22.40;97.10;;;;;;7291766;19;20184;-88
2023/05/16 09:29:35;;;;;;;7.80;1.20;;;22.30;99.10;;;;;;7290999;19;20180;-89
2023/05/16 09:32:09;;;;;;;9.63;1.60;;;22.90;98.30;;;;;;7316765;19;20195;-90
2023/05/16 09:34:48;;;;;;;9.50;1.20;;;23.60;95.80;;;;;;7268971;19;20206;-89
2023/05/16 09:37:14;;;;;;;11.00;1.30;;;23.20;96.40;;;;;;7290701;19;20199;-89
2023/05/16 09:39:50;;;;;;;9.10;1.40;;;23.00;97.20;;;;;;7294158;19;20196;-89
2023/05/16 09:42:17;;;;;;;11.90;1.13;;;21.80;99.10;;;;;;7290820;19;20194;-89
2023/05/16 09:44:50;;;;;;;6.47;1.07;;;21.60;99.30;;;;;;7290593;19;20192;-89
2023/05/16 09:47:17;;;;;;;4.77;1.03;;;20.70;99.00;;;;;;7291055;19;20198;-89
2023/05/16 09:49:45;;;;;;;5.60;1.13;;;22.00;99.00;;;;;;7289351;19;20198;-90
2023/05/16 09:52:12;;;;;;;4.20;0.90;;;22.30;96.20;;;;;;7290799;19;20323;-89
2023/05/16 09:54:38;;;;;;;6.20;1.07;;;22.60;95.80;;;;;;7290385;19;20187;-89
2023/05/16 09:57:04;;;;;;;7.70;1.20;;;22.80;95.70;;;;;;7289639;19;20206;-90
2023/05/16 09:59:37;;;;;;;5.57;1.00;;;23.40;91.90;;;;;;7309539;19;20197;-89
2023/05/16 10:02:06;;;;;;;6.40;0.93;;;22.20;92.90;;;;;;7276280;19;20198;-89
2023/05/16 10:04:34;;;;;;;5.47;0.90;;;22.20;92.70;;;;;;7310806;19;20201;-89
2023/05/16 10:07:02;;;;;;;6.50;0.90;;;22.40;91.80;;;;;;7290956;19;20240;-89
2023/05/16 10:09:31;;;;;;;4.20;0.90;;;22.50;91.50;;;;;;7291925;19;20191;-89
2023/05/16 10:12:01;;;;;;;5.67;0.80;;;22.40;92.20;;;;;;7289124;19;20193;-90
2023/05/16 10:14:28;;;;;;;5.47;0.90;;;23.00;94.60;;;;;;7290742;19;20256;-89
2023/05/16 10:16:56;;;;;;;5.33;0.97;;;23.30;90.70;;;;;;7288173;19;20192;-89
2023/05/16 10:19:25;;;;;;;6.60;0.83;;;23.50;90.90;;;;;;7289894;19;20221;-89
2023/05/16 10:21:58;;;;;;;9.13;1.20;;;24.00;88.50;;;;;;7287499;19;20188;-90
2023/05/16 10:24:33;;;;;;;5.93;0.93;;;23.60;88.60;;;;;;7289983;19;20185;-90
2023/05/16 10:27:00;;;;;;;6.90;1.10;;;23.00;85.20;;;;;;7290540;19;20521;-90
2023/05/16 10:29:27;;;;;;;7.13;1.77;;;22.30;89.20;;;;;;7290287;19;20191;-89
2023/05/16 10:31:53;;;;;;;6.87;1.20;;;21.60;90.80;;;;;;7288924;19;20198;-90
2023/05/16 10:34:19;;;;;;;5.93;1.07;;;22.00;88.10;;;;;;7289122;19;20219;-89
2023/05/16 10:36:46;;;;;;;5.97;0.80;;;22.70;90.00;;;;;;7286099;19;20219;-89
2023/05/16 10:39:14;;;;;;;7.93;1.90;;;23.00;86.30;;;;;;7288963;19;20193;-89
2023/05/16 10:41:40;;;;;;;5.73;1.10;;;22.70;90.50;;;;;;7289031;19;20188;-89
2023/05/16 10:44:16;;;;;;;4.23;0.97;;;23.30;86.80;;;;;;7290538;19;20191;-89
2023/05/16 10:46:42;;;;;;;1.67;0.60;;;22.80;84.40;;;;;;7288841;19;20276;-89
2023/05/16 10:49:24;;;;;;;9.63;1.77;;;23.20;86.20;;;;;;7288429;19;20205;-89
2023/05/16 10:52:06;;;;;;;11.27;1.30;;;22.90;90.70;;;;;;7287917;19;20186;-89
2023/05/16 10:54:38;;;;;;;14.03;2.00;;;21.40;92.30;;;;;;7289934;19;20205;-88
2023/05/16 10:57:24;;;;;;;12.63;1.30;;;20.70;94.90;;;;;;7270251;19;20182;-89
2023/05/16 11:00:02;;;;;;;11.03;1.57;;;21.20;94.60;;;;;;7343074;19;20793;-81
2023/05/16 11:02:38;;;;;;;8.83;1.10;;;21.60;92.90;;;;;;7321374;19;20191;-81
2023/05/16 11:05:05;;;;;;;7.67;1.47;;;22.20;87.80;;;;;;7298014;19;20957;-82
2023/05/16 11:07:38;;;;;;;11.00;1.83;;;21.50;89.80;;;;;;7342674;19;20793;-82
2023/05/16 11:10:09;;;;;;;10.60;2.40;;;22.00;90.50;;;;;;7298036;19;20196;-81
2023/05/16 11:12:49;;;;;;;5.77;1.03;;;22.50;91.10;;;;;;7320485;19;20196;-82
2023/05/16 11:15:26;;;;;;;10.13;1.40;;;23.10;86.40;;;;;;7319621;19;20566;-81
2023/05/16 11:18:05;;;;;;;6.53;1.00;;;23.00;88.80;;;;;;7319567;19;20199;-82
2023/05/16 11:20:36;;;;;;;10.63;1.20;;;23.60;83.80;;;;;;7320737;19;20600;-82
2023/05/16 11:23:22;;;;;;;7.30;1.00;;;22.30;87.10;;;;;;7320934;19;20194;-81
2023/05/16 11:25:56;;;;;;;11.30;1.20;;;21.30;89.90;;;;;;7220075;19;2004564;-82
2023/05/16 11:28:24;;;;;;;14.23;1.73;;;21.70;90.70;;;;;;7325538;19;20657;-82
2023/05/16 11:30:54;;;;;;;18.63;1.50;;;22.30;89.90;;;;;;7321216;19;20651;-83
2023/05/16 11:33:21;;;;;;;5.97;0.97;;;23.40;90.40;;;;;;7319649;19;20188;-82
2023/05/16 11:36:01;;;;;;;4.60;0.83;;;23.60;81.10;;;;;;7319481;19;20196;-82
2023/05/16 11:38:30;;;;;;;7.13;1.00;;;22.70;84.30;;;;;;7318191;19;20653;-82
2023/05/16 11:41:01;;;;;;;7.83;1.20;;;21.30;89.50;;;;;;7320480;19;20184;-83
2023/05/16 11:43:27;;;;;;;13.37;1.53;;;20.80;92.50;;;;;;7318715;19;20188;-82
2023/05/16 11:45:56;;;;;;;14.73;1.50;;;20.50;93.00;;;;;;7321016;19;20224;-82
2023/05/16 11:48:25;;;;;;;14.37;1.60;;;20.70;92.90;;;;;;7317528;19;20199;-82
2023/05/16 11:50:52;;;;;;;17.57;1.60;;;20.40;91.30;;;;;;7317911;19;20192;-82
2023/05/16 11:53:18;;;;;;;9.70;1.30;;;20.90;91.70;;;;;;7318636;19;20557;-82
2023/05/16 11:55:46;;;;;;;6.93;1.10;;;21.10;91.70;;;;;;7319130;19;20220;-81
2023/05/16 11:58:11;;;;;;;5.30;0.97;;;20.60;88.80;;;;;;7317151;19;20563;-82
2023/05/16 12:00:47;;;;;;;5.00;1.10;;;20.50;87.80;;;;;;7319105;19;20270;-81
2023/05/16 12:03:12;;;;;;;9.50;1.47;;;19.50;91.00;;;;;;7318191;19;20194;-82
2023/05/16 12:05:38;;;;;;;7.03;1.40;;;19.30;95.10;;;;;;7317557;19;20215;-82
2023/05/16 12:08:05;;;;;;;7.30;1.23;;;19.10;94.50;;;;;;7321298;19;20184;-82
2023/05/16 12:10:32;;;;;;;8.93;1.47;;;19.30;94.20;;;;;;7321395;19;20212;-82
2023/05/16 12:12:58;;;;;;;9.60;1.47;;;19.20;92.30;;;;;;7290631;19;20281;-82
2023/05/16 12:15:24;;;;;;;6.57;1.37;;;19.00;95.80;;;;;;7289292;19;20669;-82
2023/05/16 12:17:50;;;;;;;14.23;0.97;;;19.20;94.60;;;;;;7289661;19;20224;-81
2023/05/16 12:20:16;;;;;;;8.03;1.07;;;18.80;95.10;;;;;;7290491;19;20185;-81
2023/05/16 12:22:44;;;;;;;7.07;1.43;;;18.50;94.60;;;;;;7289955;19;20192;-81
2023/05/16 12:25:27;;;;;;;9.33;1.20;;;18.20;97.90;;;;;;7288743;19;20204;-81
2023/05/16 12:27:55;;;;;;;7.87;1.20;;;18.30;97.00;;;;;;7290368;19;20197;-82
2023/05/16 12:30:23;;;;;;;6.93;1.30;;;18.50;96.10;;;;;;7287489;19;20189;-81
2023/05/16 12:32:56;;;;;;;8.33;1.17;;;18.30;96.80;;;;;;7288541;19;20671;-81
2023/05/16 12:35:23;;;;;;;4.73;0.90;;;18.40;97.70;;;;;;7288208;19;20196;-81
2023/05/16 12:37:52;;;;;;;5.57;1.00;;;18.40;95.80;;;;;;7288405;19;20193;-82
2023/05/16 12:40:19;;;;;;;6.20;0.90;;;18.30;95.00;;;;;;7288984;19;20532;-82
2023/05/16 12:42:49;;;;;;;5.23;1.00;;;18.30;95.70;;;;;;7288307;19;20556;-81
2023/05/16 12:45:16;;;;;;;7.13;1.20;;;18.30;96.70;;;;;;7287959;19;20186;-81
2023/05/16 12:47:42;;;;;;;9.90;1.30;;;18.60;92.70;;;;;;7288134;19;20256;-82